sensor_id;sensor_type;location;lat;lon;timestamp;P1;durP1;ratioP1;P2;durP2;ratioP2
6392;SDS011;3229;42.674;23.282;2023-03-23T00:01:29;12.27;;;10.03;;
6392;SDS011;3229;42.674;23.282;2023-03-23T00:03:57;13.57;;;9.83;;
6392;SDS011;3229;42.674;23.282;2023-03-23T00:06:25;26.57;;;10.53;;
6392;SDS011;3229;42.674;23.282;2023-03-23T00:08:59;11.80;;;9.10;;
6392;SDS011;3229;42.674;23.282;2023-03-23T00:11:27;14.83;;;10.70;;
6392;SDS011;3229;42.674;23.282;2023-03-23T00:13:56;11.63;;;9.10;;
6392;SDS011;3229;42.674;23.282;2023-03-23T00:16:26;13.70;;;9.73;;
6392;SDS011;3229;42.674;23.282;2023-03-23T00:18:55;12.43;;;9.77;;
6392;SDS011;3229;42.674;23.282;2023-03-23T00:21:24;11.10;;;9.27;;
6392;SDS011;3229;42.674;23.282;2023-03-23T00:23:59;13.17;;;9.77;;
6392;SDS011;3229;42.674;23.282;2023-03-23T00:26:27;10.90;;;8.53;;
6392;SDS011;3229;42.674;23.282;2023-03-23T00:28:54;11.83;;;8.67;;
6392;SDS011;3229;42.674;23.282;2023-03-23T00:31:21;11.80;;;9.10;;
6392;SDS011;3229;42.674;23.282;2023-03-23T00:33:48;10.17;;;8.67;;
6392;SDS011;3229;42.674;23.282;2023-03-23T00:36:15;13.10;;;9.17;;
6392;SDS011;3229;42.674;23.282;2023-03-23T00:38:42;11.57;;;9.13;;
6392;SDS011;3229;42.674;23.282;2023-03-23T00:41:13;14.30;;;9.63;;
6392;SDS011;3229;42.674;23.282;2023-03-23T00:43:40;12.30;;;9.33;;
6392;SDS011;3229;42.674;23.282;2023-03-23T00:46:07;11.23;;;8.87;;
6392;SDS011;3229;42.674;23.282;2023-03-23T00:48:34;12.83;;;9.20;;
6392;SDS011;3229;42.674;23.282;2023-03-23T00:51:06;10.87;;;8.60;;
6392;SDS011;3229;42.674;23.282;2023-03-23T00:53:35;12.90;;;9.30;;
6392;SDS011;3229;42.674;23.282;2023-03-23T00:56:02;12.97;;;9.23;;
6392;SDS011;3229;42.674;23.282;2023-03-23T00:58:30;10.50;;;8.50;;
6392;SDS011;3229;42.674;23.282;2023-03-23T01:00:57;10.50;;;8.47;;
6392;SDS011;3229;42.674;23.282;2023-03-23T01:03:24;9.97;;;8.10;;
6392;SDS011;3229;42.674;23.282;2023-03-23T01:05:51;11.80;;;8.83;;
6392;SDS011;3229;42.674;23.282;2023-03-23T01:08:18;15.87;;;10.47;;
6392;SDS011;3229;42.674;23.282;2023-03-23T01:10:46;10.33;;;8.90;;
6392;SDS011;3229;42.674;23.282;2023-03-23T01:13:13;14.17;;;9.23;;
6392;SDS011;3229;42.674;23.282;2023-03-23T01:15:41;13.53;;;9.00;;
6392;SDS011;3229;42.674;23.282;2023-03-23T01:18:09;12.17;;;9.87;;
6392;SDS011;3229;42.674;23.282;2023-03-23T01:20:36;12.63;;;10.03;;
6392;SDS011;3229;42.674;23.282;2023-03-23T01:23:03;14.40;;;9.70;;
6392;SDS011;3229;42.674;23.282;2023-03-23T01:25:31;14.23;;;10.60;;
6392;SDS011;3229;42.674;23.282;2023-03-23T01:28:01;13.43;;;9.73;;
6392;SDS011;3229;42.674;23.282;2023-03-23T01:30:28;11.23;;;9.47;;
6392;SDS011;3229;42.674;23.282;2023-03-23T01:32:57;13.87;;;9.90;;
6392;SDS011;3229;42.674;23.282;2023-03-23T01:35:23;15.03;;;9.83;;
6392;SDS011;3229;42.674;23.282;2023-03-23T01:37:50;13.10;;;10.67;;
6392;SDS011;3229;42.674;23.282;2023-03-23T01:40:17;15.07;;;11.10;;
6392;SDS011;3229;42.674;23.282;2023-03-23T01:42:44;14.23;;;10.47;;
6392;SDS011;3229;42.674;23.282;2023-03-23T01:48:01;16.33;;;11.53;;
6392;SDS011;3229;42.674;23.282;2023-03-23T01:50:32;14.07;;;11.27;;
6392;SDS011;3229;42.674;23.282;2023-03-23T01:53:02;12.87;;;10.13;;
6392;SDS011;3229;42.674;23.282;2023-03-23T01:55:33;12.33;;;10.33;;
6392;SDS011;3229;42.674;23.282;2023-03-23T01:58:04;15.50;;;11.07;;
6392;SDS011;3229;42.674;23.282;2023-03-23T02:00:32;13.03;;;10.37;;
6392;SDS011;3229;42.674;23.282;2023-03-23T02:03:01;13.30;;;10.67;;
6392;SDS011;3229;42.674;23.282;2023-03-23T02:05:29;13.00;;;10.67;;
6392;SDS011;3229;42.674;23.282;2023-03-23T02:07:59;12.97;;;10.07;;
6392;SDS011;3229;42.674;23.282;2023-03-23T02:10:29;14.70;;;10.67;;
6392;SDS011;3229;42.674;23.282;2023-03-23T02:12:57;14.83;;;10.63;;
6392;SDS011;3229;42.674;23.282;2023-03-23T02:15:25;13.97;;;10.97;;
6392;SDS011;3229;42.674;23.282;2023-03-23T02:17:57;13.23;;;10.30;;
6392;SDS011;3229;42.674;23.282;2023-03-23T02:20:38;14.17;;;11.20;;
6392;SDS011;3229;42.674;23.282;2023-03-23T02:23:43;17.73;;;9.80;;
6392;SDS011;3229;42.674;23.282;2023-03-23T02:26:20;13.33;;;10.10;;
6392;SDS011;3229;42.674;23.282;2023-03-23T02:29:07;12.00;;;9.90;;
6392;SDS011;3229;42.674;23.282;2023-03-23T02:31:56;13.23;;;9.67;;
6392;SDS011;3229;42.674;23.282;2023-03-23T02:34:40;12.67;;;9.40;;
6392;SDS011;3229;42.674;23.282;2023-03-23T02:37:09;12.87;;;9.20;;
6392;SDS011;3229;42.674;23.282;2023-03-23T02:39:41;11.33;;;9.20;;
6392;SDS011;3229;42.674;23.282;2023-03-23T02:42:12;15.47;;;9.63;;
6392;SDS011;3229;42.674;23.282;2023-03-23T02:44:43;13.47;;;9.77;;
6392;SDS011;3229;42.674;23.282;2023-03-23T02:47:12;12.33;;;9.10;;
6392;SDS011;3229;42.674;23.282;2023-03-23T02:49:45;10.50;;;8.63;;
6392;SDS011;3229;42.674;23.282;2023-03-23T02:52:16;11.73;;;9.00;;
6392;SDS011;3229;42.674;23.282;2023-03-23T02:54:46;10.57;;;9.00;;
6392;SDS011;3229;42.674;23.282;2023-03-23T02:57:16;11.27;;;8.23;;
6392;SDS011;3229;42.674;23.282;2023-03-23T02:59:43;9.90;;;8.83;;
6392;SDS011;3229;42.674;23.282;2023-03-23T03:02:12;11.97;;;8.40;;
6392;SDS011;3229;42.674;23.282;2023-03-23T03:04:40;11.70;;;8.83;;
6392;SDS011;3229;42.674;23.282;2023-03-23T03:10:16;9.83;;;7.77;;
6392;SDS011;3229;42.674;23.282;2023-03-23T03:12:51;10.20;;;8.23;;
6392;SDS011;3229;42.674;23.282;2023-03-23T03:15:24;12.00;;;9.43;;
6392;SDS011;3229;42.674;23.282;2023-03-23T03:17:58;10.13;;;8.80;;
6392;SDS011;3229;42.674;23.282;2023-03-23T03:20:31;11.30;;;8.27;;
6392;SDS011;3229;42.674;23.282;2023-03-23T03:23:03;10.07;;;8.53;;
6392;SDS011;3229;42.674;23.282;2023-03-23T03:25:34;12.10;;;9.13;;
6392;SDS011;3229;42.674;23.282;2023-03-23T03:28:02;11.57;;;9.10;;
6392;SDS011;3229;42.674;23.282;2023-03-23T03:30:30;10.70;;;9.30;;
6392;SDS011;3229;42.674;23.282;2023-03-23T03:33:02;11.63;;;8.97;;
6392;SDS011;3229;42.674;23.282;2023-03-23T03:35:29;12.17;;;9.90;;
6392;SDS011;3229;42.674;23.282;2023-03-23T03:38:05;11.67;;;9.57;;
6392;SDS011;3229;42.674;23.282;2023-03-23T03:40:33;13.60;;;9.93;;
6392;SDS011;3229;42.674;23.282;2023-03-23T03:43:01;13.93;;;10.20;;
6392;SDS011;3229;42.674;23.282;2023-03-23T03:45:28;13.93;;;9.57;;
6392;SDS011;3229;42.674;23.282;2023-03-23T03:47:55;12.23;;;9.13;;
6392;SDS011;3229;42.674;23.282;2023-03-23T03:50:22;12.40;;;9.93;;
6392;SDS011;3229;42.674;23.282;2023-03-23T03:52:48;14.63;;;10.03;;
6392;SDS011;3229;42.674;23.282;2023-03-23T03:55:17;16.03;;;10.50;;
6392;SDS011;3229;42.674;23.282;2023-03-23T03:57:43;14.20;;;10.33;;
6392;SDS011;3229;42.674;23.282;2023-03-23T04:00:10;12.13;;;9.70;;
6392;SDS011;3229;42.674;23.282;2023-03-23T04:02:41;15.80;;;10.50;;
6392;SDS011;3229;42.674;23.282;2023-03-23T04:05:09;13.73;;;10.27;;
6392;SDS011;3229;42.674;23.282;2023-03-23T04:07:36;14.23;;;10.50;;
6392;SDS011;3229;42.674;23.282;2023-03-23T04:10:05;17.43;;;10.20;;
6392;SDS011;3229;42.674;23.282;2023-03-23T04:12:34;14.40;;;10.27;;
6392;SDS011;3229;42.674;23.282;2023-03-23T04:15:01;16.90;;;11.00;;
6392;SDS011;3229;42.674;23.282;2023-03-23T04:17:29;13.93;;;10.60;;
6392;SDS011;3229;42.674;23.282;2023-03-23T04:19:56;14.10;;;10.57;;
6392;SDS011;3229;42.674;23.282;2023-03-23T04:22:24;13.27;;;10.90;;
6392;SDS011;3229;42.674;23.282;2023-03-23T04:24:55;14.17;;;11.20;;
6392;SDS011;3229;42.674;23.282;2023-03-23T04:27:23;13.00;;;10.23;;
6392;SDS011;3229;42.674;23.282;2023-03-23T04:29:54;14.97;;;11.57;;
6392;SDS011;3229;42.674;23.282;2023-03-23T04:32:23;14.83;;;11.23;;
6392;SDS011;3229;42.674;23.282;2023-03-23T04:34:50;15.03;;;11.40;;
6392;SDS011;3229;42.674;23.282;2023-03-23T04:37:17;15.63;;;11.17;;
6392;SDS011;3229;42.674;23.282;2023-03-23T04:39:44;14.83;;;10.13;;
6392;SDS011;3229;42.674;23.282;2023-03-23T04:42:11;15.97;;;10.67;;
6392;SDS011;3229;42.674;23.282;2023-03-23T04:44:38;14.20;;;10.57;;
6392;SDS011;3229;42.674;23.282;2023-03-23T04:47:08;13.53;;;10.87;;
6392;SDS011;3229;42.674;23.282;2023-03-23T04:49:35;15.90;;;10.87;;
6392;SDS011;3229;42.674;23.282;2023-03-23T04:52:02;15.83;;;12.30;;
6392;SDS011;3229;42.674;23.282;2023-03-23T04:54:29;9.63;;;8.07;;
6392;SDS011;3229;42.674;23.282;2023-03-23T04:56:56;15.27;;;9.03;;
6392;SDS011;3229;42.674;23.282;2023-03-23T04:59:24;12.97;;;8.70;;
6392;SDS011;3229;42.674;23.282;2023-03-23T05:01:52;13.70;;;8.40;;
6392;SDS011;3229;42.674;23.282;2023-03-23T05:04:22;10.97;;;8.50;;
6392;SDS011;3229;42.674;23.282;2023-03-23T05:06:50;15.97;;;8.70;;
6392;SDS011;3229;42.674;23.282;2023-03-23T05:09:17;11.80;;;8.60;;
6392;SDS011;3229;42.674;23.282;2023-03-23T05:11:44;13.63;;;9.27;;
6392;SDS011;3229;42.674;23.282;2023-03-23T05:14:11;10.90;;;8.57;;
6392;SDS011;3229;42.674;23.282;2023-03-23T05:16:38;15.87;;;10.00;;
6392;SDS011;3229;42.674;23.282;2023-03-23T05:19:05;16.57;;;9.67;;
6392;SDS011;3229;42.674;23.282;2023-03-23T05:21:34;11.17;;;9.57;;
6392;SDS011;3229;42.674;23.282;2023-03-23T05:24:02;15.83;;;10.03;;
6392;SDS011;3229;42.674;23.282;2023-03-23T05:26:29;14.60;;;10.17;;
6392;SDS011;3229;42.674;23.282;2023-03-23T05:28:56;18.77;;;11.60;;
6392;SDS011;3229;42.674;23.282;2023-03-23T05:31:24;14.13;;;11.00;;
6392;SDS011;3229;42.674;23.282;2023-03-23T05:33:50;14.10;;;10.50;;
6392;SDS011;3229;42.674;23.282;2023-03-23T05:36:17;15.73;;;11.17;;
6392;SDS011;3229;42.674;23.282;2023-03-23T05:38:46;18.20;;;13.00;;
6392;SDS011;3229;42.674;23.282;2023-03-23T05:41:14;13.77;;;11.07;;
6392;SDS011;3229;42.674;23.282;2023-03-23T05:43:41;15.97;;;12.00;;
6392;SDS011;3229;42.674;23.282;2023-03-23T05:46:08;16.33;;;12.10;;
6392;SDS011;3229;42.674;23.282;2023-03-23T05:48:34;16.27;;;13.13;;
6392;SDS011;3229;42.674;23.282;2023-03-23T05:51:01;15.27;;;11.50;;
6392;SDS011;3229;42.674;23.282;2023-03-23T05:53:29;17.37;;;12.43;;
6392;SDS011;3229;42.674;23.282;2023-03-23T05:56:04;18.17;;;12.40;;
6392;SDS011;3229;42.674;23.282;2023-03-23T05:58:31;13.23;;;11.20;;
6392;SDS011;3229;42.674;23.282;2023-03-23T06:00:58;14.90;;;11.80;;
6392;SDS011;3229;42.674;23.282;2023-03-23T06:03:25;13.73;;;11.20;;
6392;SDS011;3229;42.674;23.282;2023-03-23T06:05:52;22.67;;;11.57;;
6392;SDS011;3229;42.674;23.282;2023-03-23T06:08:19;15.60;;;12.57;;
6392;SDS011;3229;42.674;23.282;2023-03-23T06:10:45;16.13;;;11.93;;
6392;SDS011;3229;42.674;23.282;2023-03-23T06:13:14;19.53;;;13.03;;
6392;SDS011;3229;42.674;23.282;2023-03-23T06:15:41;15.87;;;12.37;;
6392;SDS011;3229;42.674;23.282;2023-03-23T06:18:08;14.83;;;11.80;;
6392;SDS011;3229;42.674;23.282;2023-03-23T06:20:35;19.30;;;12.77;;
6392;SDS011;3229;42.674;23.282;2023-03-23T06:23:02;18.40;;;13.27;;
6392;SDS011;3229;42.674;23.282;2023-03-23T06:25:29;15.07;;;11.57;;
6392;SDS011;3229;42.674;23.282;2023-03-23T06:27:56;17.40;;;12.37;;
6392;SDS011;3229;42.674;23.282;2023-03-23T06:30:24;15.53;;;11.60;;
6392;SDS011;3229;42.674;23.282;2023-03-23T06:32:54;14.17;;;10.77;;
6392;SDS011;3229;42.674;23.282;2023-03-23T06:35:21;16.13;;;10.30;;
6392;SDS011;3229;42.674;23.282;2023-03-23T06:37:47;15.27;;;10.40;;
6392;SDS011;3229;42.674;23.282;2023-03-23T06:40:14;16.10;;;11.27;;
6392;SDS011;3229;42.674;23.282;2023-03-23T06:42:43;14.23;;;10.10;;
6392;SDS011;3229;42.674;23.282;2023-03-23T06:45:10;14.70;;;10.10;;
6392;SDS011;3229;42.674;23.282;2023-03-23T06:47:39;12.87;;;9.87;;
6392;SDS011;3229;42.674;23.282;2023-03-23T06:50:06;12.63;;;9.95;;
6392;SDS011;3229;42.674;23.282;2023-03-23T06:52:34;11.45;;;9.68;;
6392;SDS011;3229;42.674;23.282;2023-03-23T06:55:01;11.32;;;9.45;;
6392;SDS011;3229;42.674;23.282;2023-03-23T06:57:28;9.90;;;8.82;;
6392;SDS011;3229;42.674;23.282;2023-03-23T06:59:55;12.13;;;9.18;;
6392;SDS011;3229;42.674;23.282;2023-03-23T07:02:22;10.85;;;8.90;;
6392;SDS011;3229;42.674;23.282;2023-03-23T07:04:50;11.45;;;9.55;;
6392;SDS011;3229;42.674;23.282;2023-03-23T07:07:19;9.55;;;8.50;;
6392;SDS011;3229;42.674;23.282;2023-03-23T07:09:46;9.38;;;8.48;;
6392;SDS011;3229;42.674;23.282;2023-03-23T07:12:13;8.50;;;7.57;;
6392;SDS011;3229;42.674;23.282;2023-03-23T07:17:12;8.50;;;7.38;;
6392;SDS011;3229;42.674;23.282;2023-03-23T07:19:39;10.15;;;8.10;;
6392;SDS011;3229;42.674;23.282;2023-03-23T07:22:07;7.95;;;7.15;;
6392;SDS011;3229;42.674;23.282;2023-03-23T07:24:34;8.05;;;7.25;;
6392;SDS011;3229;42.674;23.282;2023-03-23T07:27:01;8.80;;;7.90;;
6392;SDS011;3229;42.674;23.282;2023-03-23T07:29:28;8.82;;;7.95;;
6392;SDS011;3229;42.674;23.282;2023-03-23T07:34:31;7.43;;;6.72;;
6392;SDS011;3229;42.674;23.282;2023-03-23T08:15:56;7.68;;;6.90;;
6392;SDS011;3229;42.674;23.282;2023-03-23T08:18:23;10.27;;;7.40;;
6392;SDS011;3229;42.674;23.282;2023-03-23T08:20:51;7.65;;;6.88;;
6392;SDS011;3229;42.674;23.282;2023-03-23T08:29:28;6.88;;;6.18;;
6392;SDS011;3229;42.674;23.282;2023-03-23T08:38:29;9.15;;;6.72;;
6392;SDS011;3229;42.674;23.282;2023-03-23T08:40:57;6.68;;;6.07;;
6392;SDS011;3229;42.674;23.282;2023-03-23T08:43:25;8.70;;;6.15;;
6392;SDS011;3229;42.674;23.282;2023-03-23T08:45:52;7.97;;;6.00;;
6392;SDS011;3229;42.674;23.282;2023-03-23T08:48:19;6.78;;;6.07;;
6392;SDS011;3229;42.674;23.282;2023-03-23T08:50:46;7.60;;;6.18;;
6392;SDS011;3229;42.674;23.282;2023-03-23T08:53:12;5.93;;;5.25;;
6392;SDS011;3229;42.674;23.282;2023-03-23T08:55:42;6.32;;;5.72;;
6392;SDS011;3229;42.674;23.282;2023-03-23T08:58:09;8.00;;;6.22;;
6392;SDS011;3229;42.674;23.282;2023-03-23T09:00:36;6.22;;;5.35;;
6392;SDS011;3229;42.674;23.282;2023-03-23T09:03:03;5.80;;;5.20;;
6392;SDS011;3229;42.674;23.282;2023-03-23T09:05:30;9.05;;;6.47;;
6392;SDS011;3229;42.674;23.282;2023-03-23T09:07:57;5.93;;;5.25;;
6392;SDS011;3229;42.674;23.282;2023-03-23T09:10:25;8.32;;;6.30;;
6392;SDS011;3229;42.674;23.282;2023-03-23T09:12:56;5.43;;;4.93;;
6392;SDS011;3229;42.674;23.282;2023-03-23T09:15:23;10.40;;;5.70;;
6392;SDS011;3229;42.674;23.282;2023-03-23T09:17:52;6.18;;;4.43;;
6392;SDS011;3229;42.674;23.282;2023-03-23T09:20:20;7.55;;;5.18;;
6392;SDS011;3229;42.674;23.282;2023-03-23T09:22:48;6.32;;;5.13;;
6392;SDS011;3229;42.674;23.282;2023-03-23T09:25:17;6.32;;;5.10;;
6392;SDS011;3229;42.674;23.282;2023-03-23T09:27:48;6.40;;;4.40;;
6392;SDS011;3229;42.674;23.282;2023-03-23T09:30:19;6.03;;;5.03;;
6392;SDS011;3229;42.674;23.282;2023-03-23T09:32:46;6.50;;;5.53;;
6392;SDS011;3229;42.674;23.282;2023-03-23T09:35:14;6.03;;;5.47;;
6392;SDS011;3229;42.674;23.282;2023-03-23T09:37:42;5.82;;;4.68;;
6392;SDS011;3229;42.674;23.282;2023-03-23T09:40:10;5.70;;;4.65;;
6392;SDS011;3229;42.674;23.282;2023-03-23T09:42:46;5.57;;;5.07;;
6392;SDS011;3229;42.674;23.282;2023-03-23T09:45:28;5.63;;;5.13;;
6392;SDS011;3229;42.674;23.282;2023-03-23T09:48:14;5.20;;;4.70;;
6392;SDS011;3229;42.674;23.282;2023-03-23T09:51:00;5.25;;;4.75;;
6392;SDS011;3229;42.674;23.282;2023-03-23T09:53:33;5.32;;;4.80;;
6392;SDS011;3229;42.674;23.282;2023-03-23T09:56:08;6.68;;;5.00;;
6392;SDS011;3229;42.674;23.282;2023-03-23T09:58:37;6.10;;;5.15;;
6392;SDS011;3229;42.674;23.282;2023-03-23T10:01:12;9.13;;;5.13;;
6392;SDS011;3229;42.674;23.282;2023-03-23T10:03:44;5.40;;;4.90;;
6392;SDS011;3229;42.674;23.282;2023-03-23T10:06:14;5.28;;;4.78;;
6392;SDS011;3229;42.674;23.282;2023-03-23T10:08:43;5.75;;;5.18;;
6392;SDS011;3229;42.674;23.282;2023-03-23T10:11:13;5.32;;;4.82;;
6392;SDS011;3229;42.674;23.282;2023-03-23T10:13:53;5.95;;;5.00;;
6392;SDS011;3229;42.674;23.282;2023-03-23T10:16:34;5.78;;;4.88;;
6392;SDS011;3229;42.674;23.282;2023-03-23T10:19:08;6.05;;;4.80;;
6392;SDS011;3229;42.674;23.282;2023-03-23T10:21:40;4.65;;;4.25;;
6392;SDS011;3229;42.674;23.282;2023-03-23T10:24:10;6.68;;;4.65;;
6392;SDS011;3229;42.674;23.282;2023-03-23T10:26:44;5.00;;;4.60;;
6392;SDS011;3229;42.674;23.282;2023-03-23T10:29:21;5.15;;;4.65;;
6392;SDS011;3229;42.674;23.282;2023-03-23T10:31:53;6.78;;;4.90;;
6392;SDS011;3229;42.674;23.282;2023-03-23T10:34:24;5.85;;;5.13;;
6392;SDS011;3229;42.674;23.282;2023-03-23T10:37:00;5.38;;;4.93;;
6392;SDS011;3229;42.674;23.282;2023-03-23T10:39:32;5.75;;;4.78;;
6392;SDS011;3229;42.674;23.282;2023-03-23T10:42:08;6.07;;;5.05;;
6392;SDS011;3229;42.674;23.282;2023-03-23T10:44:35;5.47;;;4.93;;
6392;SDS011;3229;42.674;23.282;2023-03-23T10:47:05;5.53;;;4.85;;
6392;SDS011;3229;42.674;23.282;2023-03-23T10:49:34;5.50;;;4.47;;
6392;SDS011;3229;42.674;23.282;2023-03-23T10:52:07;4.82;;;4.30;;
6392;SDS011;3229;42.674;23.282;2023-03-23T10:54:46;6.18;;;4.43;;
6392;SDS011;3229;42.674;23.282;2023-03-23T10:57:20;4.80;;;4.22;;
6392;SDS011;3229;42.674;23.282;2023-03-23T10:59:50;4.90;;;4.43;;
6392;SDS011;3229;42.674;23.282;2023-03-23T11:02:19;4.70;;;4.30;;
6392;SDS011;3229;42.674;23.282;2023-03-23T14:00:46;5.03;;;4.55;;
6392;SDS011;3229;42.674;23.282;2023-03-23T14:04:18;4.70;;;4.30;;
6392;SDS011;3229;42.674;23.282;2023-03-23T14:06:46;4.43;;;4.00;;
6392;SDS011;3229;42.674;23.282;2023-03-23T14:09:15;4.75;;;4.07;;
6392;SDS011;3229;42.674;23.282;2023-03-23T14:11:55;4.80;;;4.30;;
6392;SDS011;3229;42.674;23.282;2023-03-23T14:14:24;4.72;;;4.32;;
6392;SDS011;3229;42.674;23.282;2023-03-23T14:17:05;4.65;;;4.20;;
6392;SDS011;3229;42.674;23.282;2023-03-23T14:19:36;4.80;;;4.40;;
6392;SDS011;3229;42.674;23.282;2023-03-23T14:22:14;5.00;;;4.27;;
6392;SDS011;3229;42.674;23.282;2023-03-23T14:24:44;4.57;;;4.18;;
6392;SDS011;3229;42.674;23.282;2023-03-23T14:27:12;4.40;;;4.10;;
6392;SDS011;3229;42.674;23.282;2023-03-23T14:29:42;5.10;;;4.70;;
6392;SDS011;3229;42.674;23.282;2023-03-23T14:32:11;4.40;;;4.00;;
6392;SDS011;3229;42.674;23.282;2023-03-23T14:34:43;4.28;;;3.88;;
6392;SDS011;3229;42.674;23.282;2023-03-23T14:37:12;4.93;;;4.53;;
6392;SDS011;3229;42.674;23.282;2023-03-23T14:39:43;4.73;;;4.20;;
6392;SDS011;3229;42.674;23.282;2023-03-23T14:42:12;4.80;;;4.40;;
6392;SDS011;3229;42.674;23.282;2023-03-23T14:49:53;4.30;;;4.00;;
6392;SDS011;3229;42.674;23.282;2023-03-23T14:52:22;4.33;;;3.93;;
6392;SDS011;3229;42.674;23.282;2023-03-23T14:54:51;4.47;;;4.17;;
6392;SDS011;3229;42.674;23.282;2023-03-23T14:57:19;4.67;;;4.27;;
6392;SDS011;3229;42.674;23.282;2023-03-23T14:59:51;5.00;;;4.00;;
6392;SDS011;3229;42.674;23.282;2023-03-23T15:02:20;5.30;;;4.27;;
6392;SDS011;3229;42.674;23.282;2023-03-23T15:04:50;4.40;;;4.10;;
6392;SDS011;3229;42.674;23.282;2023-03-23T15:07:21;4.53;;;4.13;;
6392;SDS011;3229;42.674;23.282;2023-03-23T15:09:52;4.60;;;4.20;;
6392;SDS011;3229;42.674;23.282;2023-03-23T15:12:21;4.80;;;4.33;;
6392;SDS011;3229;42.674;23.282;2023-03-23T15:14:51;4.43;;;4.03;;
6392;SDS011;3229;42.674;23.282;2023-03-23T15:17:20;4.77;;;4.37;;
6392;SDS011;3229;42.674;23.282;2023-03-23T15:19:50;4.40;;;4.00;;
6392;SDS011;3229;42.674;23.282;2023-03-23T15:22:21;5.27;;;4.80;;
6392;SDS011;3229;42.674;23.282;2023-03-23T15:24:51;5.00;;;4.60;;
6392;SDS011;3229;42.674;23.282;2023-03-23T15:27:24;4.40;;;4.00;;
6392;SDS011;3229;42.674;23.282;2023-03-23T15:29:53;4.63;;;3.93;;
6392;SDS011;3229;42.674;23.282;2023-03-23T15:32:24;4.80;;;4.40;;
6392;SDS011;3229;42.674;23.282;2023-03-23T15:34:53;5.57;;;4.50;;
6392;SDS011;3229;42.674;23.282;2023-03-23T15:37:23;4.73;;;4.33;;
6392;SDS011;3229;42.674;23.282;2023-03-23T15:39:53;4.70;;;4.30;;
6392;SDS011;3229;42.674;23.282;2023-03-23T15:42:22;4.70;;;4.30;;
6392;SDS011;3229;42.674;23.282;2023-03-23T15:44:55;6.03;;;4.33;;
6392;SDS011;3229;42.674;23.282;2023-03-23T15:47:43;4.63;;;3.90;;
6392;SDS011;3229;42.674;23.282;2023-03-23T15:50:12;4.67;;;4.27;;
6392;SDS011;3229;42.674;23.282;2023-03-23T15:52:42;7.37;;;4.33;;
6392;SDS011;3229;42.674;23.282;2023-03-23T15:58:07;5.30;;;4.80;;
6392;SDS011;3229;42.674;23.282;2023-03-23T16:00:36;5.10;;;4.27;;
6392;SDS011;3229;42.674;23.282;2023-03-23T16:03:05;4.60;;;4.20;;
6392;SDS011;3229;42.674;23.282;2023-03-23T16:05:34;4.73;;;4.30;;
6392;SDS011;3229;42.674;23.282;2023-03-23T16:08:09;4.80;;;4.40;;
6392;SDS011;3229;42.674;23.282;2023-03-23T16:10:36;4.70;;;4.20;;
6392;SDS011;3229;42.674;23.282;2023-03-23T16:13:04;5.23;;;4.80;;
6392;SDS011;3229;42.674;23.282;2023-03-23T16:15:31;4.60;;;4.20;;
6392;SDS011;3229;42.674;23.282;2023-03-23T16:17:58;6.03;;;5.03;;
6392;SDS011;3229;42.674;23.282;2023-03-23T16:20:24;5.10;;;4.60;;
6392;SDS011;3229;42.674;23.282;2023-03-23T16:22:53;5.83;;;4.80;;
6392;SDS011;3229;42.674;23.282;2023-03-23T16:25:21;6.13;;;4.67;;
6392;SDS011;3229;42.674;23.282;2023-03-23T16:27:48;4.67;;;4.27;;
6392;SDS011;3229;42.674;23.282;2023-03-23T16:30:16;5.30;;;4.80;;
6392;SDS011;3229;42.674;23.282;2023-03-23T16:32:44;5.30;;;4.80;;
6392;SDS011;3229;42.674;23.282;2023-03-23T16:35:12;5.47;;;4.53;;
6392;SDS011;3229;42.674;23.282;2023-03-23T16:37:42;4.93;;;4.50;;
6392;SDS011;3229;42.674;23.282;2023-03-23T16:40:10;6.20;;;4.70;;
6392;SDS011;3229;42.674;23.282;2023-03-23T16:42:40;6.57;;;5.40;;
6392;SDS011;3229;42.674;23.282;2023-03-23T16:45:07;6.67;;;4.73;;
6392;SDS011;3229;42.674;23.282;2023-03-23T16:47:35;5.23;;;4.73;;
6392;SDS011;3229;42.674;23.282;2023-03-23T16:50:02;8.40;;;5.30;;
6392;SDS011;3229;42.674;23.282;2023-03-23T16:52:31;5.23;;;4.67;;
6392;SDS011;3229;42.674;23.282;2023-03-23T16:54:59;5.03;;;4.50;;
6392;SDS011;3229;42.674;23.282;2023-03-23T16:57:26;5.07;;;4.57;;
6392;SDS011;3229;42.674;23.282;2023-03-23T16:59:55;6.10;;;5.47;;
6392;SDS011;3229;42.674;23.282;2023-03-23T17:02:24;7.10;;;5.33;;
6392;SDS011;3229;42.674;23.282;2023-03-23T17:04:51;5.87;;;5.23;;
6392;SDS011;3229;42.674;23.282;2023-03-23T17:07:18;6.80;;;5.03;;
6392;SDS011;3229;42.674;23.282;2023-03-23T17:09:45;5.60;;;5.07;;
6392;SDS011;3229;42.674;23.282;2023-03-23T17:12:12;7.33;;;5.40;;
6392;SDS011;3229;42.674;23.282;2023-03-23T17:14:39;6.27;;;5.17;;
6392;SDS011;3229;42.674;23.282;2023-03-23T17:17:07;5.47;;;4.93;;
6392;SDS011;3229;42.674;23.282;2023-03-23T17:19:34;7.73;;;5.83;;
6392;SDS011;3229;42.674;23.282;2023-03-23T17:22:01;9.20;;;6.23;;
6392;SDS011;3229;42.674;23.282;2023-03-23T17:24:28;8.50;;;5.60;;
6392;SDS011;3229;42.674;23.282;2023-03-23T17:26:55;7.70;;;5.63;;
6392;SDS011;3229;42.674;23.282;2023-03-23T17:29:22;6.57;;;5.23;;
6392;SDS011;3229;42.674;23.282;2023-03-23T17:31:49;6.03;;;5.50;;
6392;SDS011;3229;42.674;23.282;2023-03-23T17:34:17;6.47;;;5.40;;
6392;SDS011;3229;42.674;23.282;2023-03-23T17:36:44;8.90;;;6.57;;
6392;SDS011;3229;42.674;23.282;2023-03-23T17:39:11;6.30;;;5.70;;
6392;SDS011;3229;42.674;23.282;2023-03-23T17:41:38;9.40;;;5.83;;
6392;SDS011;3229;42.674;23.282;2023-03-23T17:44:05;6.57;;;5.50;;
6392;SDS011;3229;42.674;23.282;2023-03-23T17:46:32;9.73;;;5.57;;
6392;SDS011;3229;42.674;23.282;2023-03-23T17:48:59;8.00;;;5.87;;
6392;SDS011;3229;42.674;23.282;2023-03-23T17:51:27;6.77;;;5.80;;
6392;SDS011;3229;42.674;23.282;2023-03-23T17:53:54;7.30;;;5.87;;
6392;SDS011;3229;42.674;23.282;2023-03-23T17:56:21;8.73;;;6.27;;
6392;SDS011;3229;42.674;23.282;2023-03-23T17:58:48;8.53;;;6.93;;
6392;SDS011;3229;42.674;23.282;2023-03-23T18:01:15;7.73;;;6.53;;
6392;SDS011;3229;42.674;23.282;2023-03-23T18:03:42;9.03;;;6.83;;
6392;SDS011;3229;42.674;23.282;2023-03-23T18:06:09;10.10;;;6.67;;
6392;SDS011;3229;42.674;23.282;2023-03-23T18:08:37;7.43;;;6.63;;
6392;SDS011;3229;42.674;23.282;2023-03-23T18:11:05;7.93;;;6.60;;
6392;SDS011;3229;42.674;23.282;2023-03-23T18:13:33;11.73;;;7.43;;
6392;SDS011;3229;42.674;23.282;2023-03-23T18:16:01;8.63;;;7.23;;
6392;SDS011;3229;42.674;23.282;2023-03-23T18:18:29;7.80;;;6.97;;
6392;SDS011;3229;42.674;23.282;2023-03-23T18:20:57;10.20;;;5.77;;
6392;SDS011;3229;42.674;23.282;2023-03-23T18:23:25;9.10;;;6.70;;
6392;SDS011;3229;42.674;23.282;2023-03-23T18:25:54;13.40;;;7.57;;
6392;SDS011;3229;42.674;23.282;2023-03-23T18:28:21;9.33;;;6.87;;
6392;SDS011;3229;42.674;23.282;2023-03-23T18:30:49;9.60;;;6.40;;
6392;SDS011;3229;42.674;23.282;2023-03-23T18:33:16;8.97;;;7.33;;
6392;SDS011;3229;42.674;23.282;2023-03-23T18:35:44;10.10;;;7.13;;
6392;SDS011;3229;42.674;23.282;2023-03-23T18:38:11;12.93;;;7.70;;
6392;SDS011;3229;42.674;23.282;2023-03-23T18:40:41;11.60;;;7.07;;
6392;SDS011;3229;42.674;23.282;2023-03-23T18:43:10;9.13;;;7.00;;
6392;SDS011;3229;42.674;23.282;2023-03-23T18:45:37;13.73;;;8.07;;
6392;SDS011;3229;42.674;23.282;2023-03-23T18:48:04;15.10;;;7.70;;
6392;SDS011;3229;42.674;23.282;2023-03-23T18:50:33;10.70;;;7.63;;
6392;SDS011;3229;42.674;23.282;2023-03-23T18:53:00;11.77;;;8.20;;
6392;SDS011;3229;42.674;23.282;2023-03-23T18:55:27;10.27;;;7.30;;
6392;SDS011;3229;42.674;23.282;2023-03-23T18:57:54;9.50;;;8.03;;
6392;SDS011;3229;42.674;23.282;2023-03-23T19:00:23;10.50;;;8.40;;
6392;SDS011;3229;42.674;23.282;2023-03-23T19:02:51;10.10;;;7.40;;
6392;SDS011;3229;42.674;23.282;2023-03-23T19:05:18;10.57;;;7.47;;
6392;SDS011;3229;42.674;23.282;2023-03-23T19:07:45;16.67;;;7.23;;
6392;SDS011;3229;42.674;23.282;2023-03-23T19:10:11;10.27;;;7.67;;